sensor_id;sensor_type;location;lat;lon;timestamp;P1;durP1;ratioP1;P2;durP2;ratioP2
42030;SDS011;27709;52.036;5.906;2023-07-24T00:02:12;4.57;;;1.42;;
42030;SDS011;27709;52.036;5.906;2023-07-24T00:04:39;3.30;;;1.80;;
42030;SDS011;27709;52.036;5.906;2023-07-24T00:07:04;4.20;;;2.10;;
42030;SDS011;27709;52.036;5.906;2023-07-24T00:09:30;2.28;;;1.45;;
42030;SDS011;27709;52.036;5.906;2023-07-24T00:11:55;3.13;;;1.55;;
42030;SDS011;27709;52.036;5.906;2023-07-24T00:14:21;3.97;;;1.77;;
42030;SDS011;27709;52.036;5.906;2023-07-24T00:16:46;2.17;;;1.55;;
42030;SDS011;27709;52.036;5.906;2023-07-24T00:19:12;3.08;;;1.88;;
42030;SDS011;27709;52.036;5.906;2023-07-24T00:21:37;3.50;;;1.95;;
42030;SDS011;27709;52.036;5.906;2023-07-24T00:24:03;2.42;;;2.00;;
42030;SDS011;27709;52.036;5.906;2023-07-24T00:26:30;2.33;;;1.77;;
42030;SDS011;27709;52.036;5.906;2023-07-24T00:28:56;3.13;;;1.90;;
42030;SDS011;27709;52.036;5.906;2023-07-24T00:31:21;4.13;;;2.75;;
42030;SDS011;27709;52.036;5.906;2023-07-24T00:33:47;3.67;;;2.50;;
42030;SDS011;27709;52.036;5.906;2023-07-24T00:36:12;3.33;;;2.28;;
42030;SDS011;27709;52.036;5.906;2023-07-24T00:38:38;3.58;;;2.28;;
42030;SDS011;27709;52.036;5.906;2023-07-24T00:41:04;2.88;;;1.90;;
42030;SDS011;27709;52.036;5.906;2023-07-24T00:43:30;2.70;;;2.30;;
42030;SDS011;27709;52.036;5.906;2023-07-24T00:45:56;3.10;;;2.80;;
42030;SDS011;27709;52.036;5.906;2023-07-24T00:48:21;3.08;;;2.40;;
42030;SDS011;27709;52.036;5.906;2023-07-24T00:50:47;4.25;;;2.30;;
42030;SDS011;27709;52.036;5.906;2023-07-24T00:53:13;2.85;;;1.88;;
42030;SDS011;27709;52.036;5.906;2023-07-24T00:55:40;3.45;;;2.33;;
42030;SDS011;27709;52.036;5.906;2023-07-24T00:58:07;4.28;;;1.88;;
42030;SDS011;27709;52.036;5.906;2023-07-24T01:00:37;4.28;;;2.40;;
42030;SDS011;27709;52.036;5.906;2023-07-24T01:03:03;2.17;;;1.70;;
42030;SDS011;27709;52.036;5.906;2023-07-24T01:05:29;3.05;;;2.00;;
42030;SDS011;27709;52.036;5.906;2023-07-24T01:07:55;4.63;;;2.60;;
42030;SDS011;27709;52.036;5.906;2023-07-24T01:10:21;3.85;;;2.33;;
42030;SDS011;27709;52.036;5.906;2023-07-24T01:12:51;4.53;;;2.17;;
42030;SDS011;27709;52.036;5.906;2023-07-24T01:18:34;4.97;;;2.80;;
42030;SDS011;27709;52.036;5.906;2023-07-24T01:21:02;3.25;;;2.10;;
42030;SDS011;27709;52.036;5.906;2023-07-24T01:23:37;3.67;;;2.60;;
42030;SDS011;27709;52.036;5.906;2023-07-24T01:26:17;3.22;;;2.25;;
42030;SDS011;27709;52.036;5.906;2023-07-24T01:28:44;3.25;;;2.28;;
42030;SDS011;27709;52.036;5.906;2023-07-24T01:31:10;3.95;;;2.03;;
42030;SDS011;27709;52.036;5.906;2023-07-24T01:33:36;3.25;;;2.25;;
42030;SDS011;27709;52.036;5.906;2023-07-24T01:36:04;5.22;;;2.65;;
42030;SDS011;27709;52.036;5.906;2023-07-24T01:38:31;3.35;;;2.28;;
42030;SDS011;27709;52.036;5.906;2023-07-24T01:40:59;6.05;;;4.05;;
42030;SDS011;27709;52.036;5.906;2023-07-24T01:43:25;4.45;;;2.83;;
42030;SDS011;27709;52.036;5.906;2023-07-24T01:45:52;4.32;;;3.05;;
42030;SDS011;27709;52.036;5.906;2023-07-24T01:48:18;5.93;;;4.18;;
42030;SDS011;27709;52.036;5.906;2023-07-24T01:50:43;4.70;;;3.50;;
42030;SDS011;27709;52.036;5.906;2023-07-24T01:53:09;5.03;;;3.78;;
42030;SDS011;27709;52.036;5.906;2023-07-24T01:55:36;5.65;;;3.55;;
42030;SDS011;27709;52.036;5.906;2023-07-24T01:58:02;5.05;;;3.67;;
42030;SDS011;27709;52.036;5.906;2023-07-24T02:00:27;4.18;;;3.33;;
42030;SDS011;27709;52.036;5.906;2023-07-24T02:02:53;6.53;;;4.13;;
42030;SDS011;27709;52.036;5.906;2023-07-24T02:05:18;5.40;;;3.92;;
42030;SDS011;27709;52.036;5.906;2023-07-24T02:07:44;5.57;;;4.15;;
42030;SDS011;27709;52.036;5.906;2023-07-24T02:10:09;7.30;;;5.00;;
42030;SDS011;27709;52.036;5.906;2023-07-24T02:12:35;5.40;;;4.20;;
42030;SDS011;27709;52.036;5.906;2023-07-24T02:15:01;5.63;;;3.75;;
42030;SDS011;27709;52.036;5.906;2023-07-24T02:17:27;6.18;;;4.13;;
42030;SDS011;27709;52.036;5.906;2023-07-24T02:19:52;5.78;;;3.67;;
42030;SDS011;27709;52.036;5.906;2023-07-24T02:22:18;5.25;;;4.10;;
42030;SDS011;27709;52.036;5.906;2023-07-24T02:24:45;5.80;;;4.25;;
42030;SDS011;27709;52.036;5.906;2023-07-24T02:27:24;7.00;;;4.85;;
42030;SDS011;27709;52.036;5.906;2023-07-24T02:29:52;5.35;;;3.72;;
42030;SDS011;27709;52.036;5.906;2023-07-24T02:32:18;6.30;;;4.85;;
42030;SDS011;27709;52.036;5.906;2023-07-24T02:34:46;5.75;;;3.85;;
42030;SDS011;27709;52.036;5.906;2023-07-24T02:37:12;6.30;;;4.18;;
42030;SDS011;27709;52.036;5.906;2023-07-24T02:39:37;6.10;;;4.53;;
42030;SDS011;27709;52.036;5.906;2023-07-24T02:42:03;6.03;;;5.10;;
42030;SDS011;27709;52.036;5.906;2023-07-24T02:44:29;7.47;;;5.13;;
42030;SDS011;27709;52.036;5.906;2023-07-24T02:46:54;6.07;;;4.20;;
42030;SDS011;27709;52.036;5.906;2023-07-24T02:49:20;5.13;;;3.50;;
42030;SDS011;27709;52.036;5.906;2023-07-24T02:51:45;5.50;;;4.30;;
42030;SDS011;27709;52.036;5.906;2023-07-24T02:54:12;5.60;;;4.18;;
42030;SDS011;27709;52.036;5.906;2023-07-24T02:56:38;7.80;;;4.78;;
42030;SDS011;27709;52.036;5.906;2023-07-24T02:59:06;6.13;;;4.47;;
42030;SDS011;27709;52.036;5.906;2023-07-24T03:01:31;5.50;;;3.95;;
42030;SDS011;27709;52.036;5.906;2023-07-24T03:03:57;4.85;;;3.75;;
42030;SDS011;27709;52.036;5.906;2023-07-24T03:06:22;5.72;;;4.25;;
42030;SDS011;27709;52.036;5.906;2023-07-24T03:08:48;6.60;;;5.07;;
42030;SDS011;27709;52.036;5.906;2023-07-24T03:11:14;5.88;;;4.80;;
42030;SDS011;27709;52.036;5.906;2023-07-24T03:13:39;6.30;;;4.70;;
42030;SDS011;27709;52.036;5.906;2023-07-24T03:16:06;4.95;;;4.13;;
42030;SDS011;27709;52.036;5.906;2023-07-24T03:18:31;6.85;;;4.78;;
42030;SDS011;27709;52.036;5.906;2023-07-24T03:20:57;6.53;;;4.95;;
42030;SDS011;27709;52.036;5.906;2023-07-24T03:23:24;6.25;;;5.07;;
42030;SDS011;27709;52.036;5.906;2023-07-24T03:25:49;6.43;;;4.63;;
42030;SDS011;27709;52.036;5.906;2023-07-24T03:28:15;6.03;;;4.60;;
42030;SDS011;27709;52.036;5.906;2023-07-24T03:30:40;5.93;;;5.03;;
42030;SDS011;27709;52.036;5.906;2023-07-24T03:33:06;5.72;;;4.28;;
42030;SDS011;27709;52.036;5.906;2023-07-24T03:35:32;5.45;;;4.65;;
42030;SDS011;27709;52.036;5.906;2023-07-24T03:37:57;5.60;;;4.22;;
42030;SDS011;27709;52.036;5.906;2023-07-24T03:40:23;6.68;;;5.30;;
42030;SDS011;27709;52.036;5.906;2023-07-24T03:42:49;7.05;;;6.00;;
42030;SDS011;27709;52.036;5.906;2023-07-24T03:45:14;8.25;;;5.85;;
42030;SDS011;27709;52.036;5.906;2023-07-24T03:47:40;7.97;;;5.57;;
42030;SDS011;27709;52.036;5.906;2023-07-24T03:50:05;6.97;;;5.38;;
42030;SDS011;27709;52.036;5.906;2023-07-24T03:52:31;6.82;;;5.97;;
42030;SDS011;27709;52.036;5.906;2023-07-24T03:54:57;6.70;;;5.78;;
42030;SDS011;27709;52.036;5.906;2023-07-24T03:57:22;9.05;;;6.40;;
42030;SDS011;27709;52.036;5.906;2023-07-24T03:59:48;7.47;;;5.47;;
42030;SDS011;27709;52.036;5.906;2023-07-24T04:02:13;8.23;;;5.60;;
42030;SDS011;27709;52.036;5.906;2023-07-24T04:04:39;8.90;;;6.10;;
42030;SDS011;27709;52.036;5.906;2023-07-24T04:07:04;7.47;;;5.53;;
42030;SDS011;27709;52.036;5.906;2023-07-24T04:09:30;7.25;;;5.63;;
42030;SDS011;27709;52.036;5.906;2023-07-24T04:11:56;6.20;;;5.15;;
42030;SDS011;27709;52.036;5.906;2023-07-24T04:14:21;7.22;;;5.47;;
42030;SDS011;27709;52.036;5.906;2023-07-24T04:16:47;7.80;;;5.78;;
42030;SDS011;27709;52.036;5.906;2023-07-24T04:19:12;8.98;;;6.60;;
42030;SDS011;27709;52.036;5.906;2023-07-24T04:21:38;9.57;;;6.15;;
42030;SDS011;27709;52.036;5.906;2023-07-24T04:24:05;8.23;;;6.38;;
42030;SDS011;27709;52.036;5.906;2023-07-24T04:26:30;9.40;;;7.35;;
42030;SDS011;27709;52.036;5.906;2023-07-24T04:28:56;9.57;;;7.13;;
42030;SDS011;27709;52.036;5.906;2023-07-24T04:31:21;8.98;;;7.13;;
42030;SDS011;27709;52.036;5.906;2023-07-24T04:33:47;9.25;;;6.97;;
42030;SDS011;27709;52.036;5.906;2023-07-24T04:36:12;9.38;;;7.75;;
42030;SDS011;27709;52.036;5.906;2023-07-24T04:38:38;8.55;;;7.25;;
42030;SDS011;27709;52.036;5.906;2023-07-24T04:41:03;9.65;;;7.57;;
42030;SDS011;27709;52.036;5.906;2023-07-24T04:43:29;8.73;;;6.80;;
42030;SDS011;27709;52.036;5.906;2023-07-24T04:45:55;9.02;;;7.35;;
42030;SDS011;27709;52.036;5.906;2023-07-24T04:48:20;9.88;;;6.80;;
42030;SDS011;27709;52.036;5.906;2023-07-24T04:50:46;9.07;;;7.15;;
42030;SDS011;27709;52.036;5.906;2023-07-24T04:53:11;10.13;;;7.60;;
42030;SDS011;27709;52.036;5.906;2023-07-24T04:55:38;9.10;;;7.13;;
42030;SDS011;27709;52.036;5.906;2023-07-24T04:58:03;10.52;;;8.63;;
42030;SDS011;27709;52.036;5.906;2023-07-24T05:00:29;10.45;;;7.50;;
42030;SDS011;27709;52.036;5.906;2023-07-24T05:02:54;9.82;;;7.82;;
42030;SDS011;27709;52.036;5.906;2023-07-24T05:05:20;9.32;;;7.57;;
42030;SDS011;27709;52.036;5.906;2023-07-24T05:07:45;11.50;;;7.30;;
42030;SDS011;27709;52.036;5.906;2023-07-24T05:10:11;10.25;;;7.63;;
42030;SDS011;27709;52.036;5.906;2023-07-24T05:12:40;10.10;;;8.32;;
42030;SDS011;27709;52.036;5.906;2023-07-24T05:15:06;11.20;;;8.50;;
42030;SDS011;27709;52.036;5.906;2023-07-24T05:17:32;9.50;;;7.22;;
42030;SDS011;27709;52.036;5.906;2023-07-24T05:19:57;11.45;;;8.48;;
42030;SDS011;27709;52.036;5.906;2023-07-24T05:22:23;10.75;;;8.25;;
42030;SDS011;27709;52.036;5.906;2023-07-24T05:24:48;11.32;;;9.07;;
42030;SDS011;27709;52.036;5.906;2023-07-24T05:27:14;8.82;;;6.93;;
42030;SDS011;27709;52.036;5.906;2023-07-24T05:29:41;12.73;;;9.20;;
42030;SDS011;27709;52.036;5.906;2023-07-24T05:32:06;11.15;;;9.13;;
42030;SDS011;27709;52.036;5.906;2023-07-24T05:34:32;11.40;;;7.63;;
42030;SDS011;27709;52.036;5.906;2023-07-24T05:36:57;9.60;;;7.18;;
42030;SDS011;27709;52.036;5.906;2023-07-24T05:39:23;10.25;;;7.43;;
42030;SDS011;27709;52.036;5.906;2023-07-24T05:41:48;11.30;;;8.05;;
42030;SDS011;27709;52.036;5.906;2023-07-24T05:44:14;9.75;;;7.88;;
42030;SDS011;27709;52.036;5.906;2023-07-24T05:46:39;9.25;;;7.50;;
42030;SDS011;27709;52.036;5.906;2023-07-24T05:49:05;9.20;;;7.25;;
42030;SDS011;27709;52.036;5.906;2023-07-24T05:51:30;11.10;;;7.75;;
42030;SDS011;27709;52.036;5.906;2023-07-24T05:53:56;13.88;;;9.65;;
42030;SDS011;27709;52.036;5.906;2023-07-24T05:56:21;12.88;;;9.90;;
42030;SDS011;27709;52.036;5.906;2023-07-24T05:58:47;11.18;;;8.60;;
42030;SDS011;27709;52.036;5.906;2023-07-24T06:01:12;11.65;;;8.55;;
42030;SDS011;27709;52.036;5.906;2023-07-24T06:03:38;11.77;;;8.82;;
42030;SDS011;27709;52.036;5.906;2023-07-24T06:06:04;11.80;;;8.68;;
42030;SDS011;27709;52.036;5.906;2023-07-24T06:08:30;10.98;;;9.00;;
42030;SDS011;27709;52.036;5.906;2023-07-24T06:10:55;11.00;;;8.50;;
42030;SDS011;27709;52.036;5.906;2023-07-24T06:13:21;13.18;;;8.85;;
42030;SDS011;27709;52.036;5.906;2023-07-24T06:15:47;12.25;;;8.75;;
42030;SDS011;27709;52.036;5.906;2023-07-24T06:18:13;13.15;;;8.38;;
42030;SDS011;27709;52.036;5.906;2023-07-24T06:20:44;12.02;;;8.82;;
42030;SDS011;27709;52.036;5.906;2023-07-24T06:23:10;10.27;;;7.95;;
42030;SDS011;27709;52.036;5.906;2023-07-24T06:25:35;11.07;;;8.75;;
42030;SDS011;27709;52.036;5.906;2023-07-24T06:28:01;12.50;;;8.70;;
42030;SDS011;27709;52.036;5.906;2023-07-24T06:30:27;14.43;;;9.00;;
42030;SDS011;27709;52.036;5.906;2023-07-24T06:32:52;15.25;;;10.40;;
42030;SDS011;27709;52.036;5.906;2023-07-24T06:35:18;11.88;;;8.02;;
42030;SDS011;27709;52.036;5.906;2023-07-24T06:37:43;11.50;;;8.02;;
42030;SDS011;27709;52.036;5.906;2023-07-24T06:40:10;12.52;;;7.75;;
42030;SDS011;27709;52.036;5.906;2023-07-24T06:42:36;13.77;;;8.43;;
42030;SDS011;27709;52.036;5.906;2023-07-24T06:45:01;13.00;;;8.40;;
42030;SDS011;27709;52.036;5.906;2023-07-24T06:47:27;11.45;;;7.85;;
42030;SDS011;27709;52.036;5.906;2023-07-24T06:49:54;11.57;;;7.78;;
42030;SDS011;27709;52.036;5.906;2023-07-24T06:52:19;11.27;;;7.72;;
42030;SDS011;27709;52.036;5.906;2023-07-24T06:54:46;11.95;;;7.68;;
42030;SDS011;27709;52.036;5.906;2023-07-24T06:57:11;10.65;;;7.70;;
42030;SDS011;27709;52.036;5.906;2023-07-24T06:59:37;10.35;;;7.07;;
42030;SDS011;27709;52.036;5.906;2023-07-24T07:04:32;10.80;;;7.60;;
42030;SDS011;27709;52.036;5.906;2023-07-24T07:06:58;10.45;;;6.97;;
42030;SDS011;27709;52.036;5.906;2023-07-24T07:09:23;12.40;;;7.88;;
42030;SDS011;27709;52.036;5.906;2023-07-24T07:11:49;12.60;;;8.45;;
42030;SDS011;27709;52.036;5.906;2023-07-24T07:14:14;10.68;;;8.00;;
42030;SDS011;27709;52.036;5.906;2023-07-24T07:16:40;12.05;;;9.15;;
42030;SDS011;27709;52.036;5.906;2023-07-24T07:19:06;9.93;;;8.02;;
42030;SDS011;27709;52.036;5.906;2023-07-24T07:21:34;12.88;;;10.20;;
42030;SDS011;27709;52.036;5.906;2023-07-24T07:23:59;13.00;;;8.82;;
42030;SDS011;27709;52.036;5.906;2023-07-24T07:26:26;12.13;;;9.50;;
42030;SDS011;27709;52.036;5.906;2023-07-24T07:28:54;11.45;;;8.85;;
42030;SDS011;27709;52.036;5.906;2023-07-24T07:31:19;11.95;;;9.27;;
42030;SDS011;27709;52.036;5.906;2023-07-24T07:33:45;11.38;;;7.88;;
42030;SDS011;27709;52.036;5.906;2023-07-24T07:36:11;10.00;;;7.57;;
42030;SDS011;27709;52.036;5.906;2023-07-24T07:38:37;9.77;;;7.47;;
42030;SDS011;27709;52.036;5.906;2023-07-24T07:41:04;8.85;;;7.10;;
42030;SDS011;27709;52.036;5.906;2023-07-24T07:43:31;8.73;;;6.78;;
42030;SDS011;27709;52.036;5.906;2023-07-24T07:45:56;11.05;;;8.45;;
42030;SDS011;27709;52.036;5.906;2023-07-24T07:48:25;9.20;;;6.55;;
42030;SDS011;27709;52.036;5.906;2023-07-24T07:50:53;8.93;;;6.97;;
42030;SDS011;27709;52.036;5.906;2023-07-24T07:53:19;9.32;;;7.60;;
42030;SDS011;27709;52.036;5.906;2023-07-24T07:55:54;9.70;;;7.30;;
42030;SDS011;27709;52.036;5.906;2023-07-24T07:58:22;9.38;;;7.95;;
42030;SDS011;27709;52.036;5.906;2023-07-24T08:00:48;9.18;;;6.72;;
42030;SDS011;27709;52.036;5.906;2023-07-24T08:03:13;9.80;;;6.88;;
42030;SDS011;27709;52.036;5.906;2023-07-24T08:05:39;9.18;;;7.25;;
42030;SDS011;27709;52.036;5.906;2023-07-24T08:08:04;9.38;;;6.80;;
42030;SDS011;27709;52.036;5.906;2023-07-24T08:10:30;10.95;;;8.00;;
42030;SDS011;27709;52.036;5.906;2023-07-24T08:12:55;8.38;;;6.78;;
42030;SDS011;27709;52.036;5.906;2023-07-24T08:15:22;11.00;;;8.75;;
42030;SDS011;27709;52.036;5.906;2023-07-24T08:17:48;10.27;;;8.27;;
42030;SDS011;27709;52.036;5.906;2023-07-24T08:20:13;11.25;;;8.35;;
42030;SDS011;27709;52.036;5.906;2023-07-24T08:22:39;10.55;;;7.93;;
42030;SDS011;27709;52.036;5.906;2023-07-24T08:25:06;10.05;;;8.57;;
42030;SDS011;27709;52.036;5.906;2023-07-24T08:27:32;10.40;;;8.68;;
42030;SDS011;27709;52.036;5.906;2023-07-24T08:29:58;10.00;;;7.93;;
42030;SDS011;27709;52.036;5.906;2023-07-24T08:32:23;9.77;;;7.50;;
42030;SDS011;27709;52.036;5.906;2023-07-24T08:34:49;9.52;;;7.38;;
42030;SDS011;27709;52.036;5.906;2023-07-24T08:37:15;9.13;;;7.35;;
42030;SDS011;27709;52.036;5.906;2023-07-24T08:39:43;8.68;;;6.10;;
42030;SDS011;27709;52.036;5.906;2023-07-24T08:42:09;10.75;;;6.07;;
42030;SDS011;27709;52.036;5.906;2023-07-24T08:44:38;10.95;;;7.40;;
42030;SDS011;27709;52.036;5.906;2023-07-24T08:47:04;9.50;;;6.80;;
42030;SDS011;27709;52.036;5.906;2023-07-24T08:49:35;7.10;;;6.05;;
42030;SDS011;27709;52.036;5.906;2023-07-24T08:52:02;9.25;;;6.70;;
42030;SDS011;27709;52.036;5.906;2023-07-24T08:54:29;8.48;;;6.35;;
42030;SDS011;27709;52.036;5.906;2023-07-24T08:56:56;9.20;;;7.00;;
42030;SDS011;27709;52.036;5.906;2023-07-24T08:59:21;8.52;;;6.53;;
42030;SDS011;27709;52.036;5.906;2023-07-24T09:01:47;9.40;;;7.72;;
42030;SDS011;27709;52.036;5.906;2023-07-24T09:04:12;9.13;;;6.50;;
42030;SDS011;27709;52.036;5.906;2023-07-24T09:06:38;8.88;;;7.55;;
42030;SDS011;27709;52.036;5.906;2023-07-24T09:09:28;9.07;;;7.03;;
42030;SDS011;27709;52.036;5.906;2023-07-24T09:11:55;8.55;;;6.97;;
42030;SDS011;27709;52.036;5.906;2023-07-24T09:14:24;8.20;;;6.65;;
42030;SDS011;27709;52.036;5.906;2023-07-24T09:17:10;7.95;;;6.65;;
42030;SDS011;27709;52.036;5.906;2023-07-24T09:19:36;7.20;;;6.00;;
42030;SDS011;27709;52.036;5.906;2023-07-24T09:22:09;8.13;;;5.78;;
42030;SDS011;27709;52.036;5.906;2023-07-24T09:24:49;6.55;;;5.55;;
42030;SDS011;27709;52.036;5.906;2023-07-24T09:27:20;8.35;;;6.50;;
42030;SDS011;27709;52.036;5.906;2023-07-24T09:29:49;6.60;;;5.47;;
42030;SDS011;27709;52.036;5.906;2023-07-24T09:32:18;8.02;;;5.85;;
42030;SDS011;27709;52.036;5.906;2023-07-24T09:34:48;6.80;;;5.90;;
42030;SDS011;27709;52.036;5.906;2023-07-24T09:37:30;7.97;;;6.15;;
42030;SDS011;27709;52.036;5.906;2023-07-24T09:39:58;7.43;;;5.18;;
42030;SDS011;27709;52.036;5.906;2023-07-24T09:42:34;6.70;;;4.78;;
42030;SDS011;27709;52.036;5.906;2023-07-24T09:45:03;6.45;;;4.93;;
42030;SDS011;27709;52.036;5.906;2023-07-24T09:47:30;6.47;;;5.03;;
42030;SDS011;27709;52.036;5.906;2023-07-24T09:49:56;7.72;;;6.00;;
42030;SDS011;27709;52.036;5.906;2023-07-24T09:52:24;9.25;;;5.25;;
42030;SDS011;27709;52.036;5.906;2023-07-24T09:57:53;6.35;;;4.97;;
42030;SDS011;27709;52.036;5.906;2023-07-24T10:00:21;6.25;;;4.70;;
42030;SDS011;27709;52.036;5.906;2023-07-24T10:02:47;6.88;;;4.70;;
42030;SDS011;27709;52.036;5.906;2023-07-24T10:05:17;6.43;;;5.43;;
42030;SDS011;27709;52.036;5.906;2023-07-24T10:07:43;8.60;;;5.30;;
42030;SDS011;27709;52.036;5.906;2023-07-24T10:10:12;7.55;;;5.07;;
42030;SDS011;27709;52.036;5.906;2023-07-24T10:12:38;8.27;;;6.30;;
42030;SDS011;27709;52.036;5.906;2023-07-24T10:15:05;7.40;;;5.75;;
42030;SDS011;27709;52.036;5.906;2023-07-24T10:17:39;9.02;;;5.63;;
42030;SDS011;27709;52.036;5.906;2023-07-24T10:20:07;8.15;;;4.80;;
42030;SDS011;27709;52.036;5.906;2023-07-24T10:22:42;6.60;;;4.88;;
42030;SDS011;27709;52.036;5.906;2023-07-24T10:25:08;7.07;;;5.30;;
42030;SDS011;27709;52.036;5.906;2023-07-24T10:27:44;6.88;;;4.88;;
42030;SDS011;27709;52.036;5.906;2023-07-24T10:30:14;6.13;;;4.70;;
42030;SDS011;27709;52.036;5.906;2023-07-24T10:32:46;9.30;;;5.95;;
42030;SDS011;27709;52.036;5.906;2023-07-24T10:35:14;8.25;;;5.00;;
42030;SDS011;27709;52.036;5.906;2023-07-24T10:37:40;7.35;;;5.05;;
42030;SDS011;27709;52.036;5.906;2023-07-24T10:40:05;8.50;;;4.65;;
42030;SDS011;27709;52.036;5.906;2023-07-24T10:42:31;8.05;;;4.10;;
42030;SDS011;27709;52.036;5.906;2023-07-24T10:45:05;5.50;;;3.90;;
42030;SDS011;27709;52.036;5.906;2023-07-24T10:47:32;6.88;;;4.30;;
42030;SDS011;27709;52.036;5.906;2023-07-24T10:49:58;7.20;;;3.92;;
42030;SDS011;27709;52.036;5.906;2023-07-24T10:52:32;6.35;;;4.20;;
42030;SDS011;27709;52.036;5.906;2023-07-24T10:55:01;6.20;;;3.60;;
42030;SDS011;27709;52.036;5.906;2023-07-24T10:57:28;6.38;;;3.97;;
42030;SDS011;27709;52.036;5.906;2023-07-24T10:59:54;8.13;;;4.90;;
42030;SDS011;27709;52.036;5.906;2023-07-24T11:02:20;7.20;;;5.57;;
42030;SDS011;27709;52.036;5.906;2023-07-24T11:04:50;9.93;;;5.93;;
42030;SDS011;27709;52.036;5.906;2023-07-24T11:07:20;8.85;;;5.78;;
42030;SDS011;27709;52.036;5.906;2023-07-24T11:09:46;8.50;;;6.07;;
42030;SDS011;27709;52.036;5.906;2023-07-24T11:12:13;9.43;;;6.50;;
42030;SDS011;27709;52.036;5.906;2023-07-24T11:14:52;8.05;;;5.72;;
42030;SDS011;27709;52.036;5.906;2023-07-24T11:17:32;6.07;;;5.47;;
42030;SDS011;27709;52.036;5.906;2023-07-24T11:20:09;7.95;;;5.47;;
42030;SDS011;27709;52.036;5.906;2023-07-24T11:22:37;9.95;;;5.72;;
42030;SDS011;27709;52.036;5.906;2023-07-24T11:25:08;8.38;;;5.72;;
42030;SDS011;27709;52.036;5.906;2023-07-24T11:27:38;6.88;;;4.65;;
42030;SDS011;27709;52.036;5.906;2023-07-24T11:30:06;9.20;;;5.68;;
42030;SDS011;27709;52.036;5.906;2023-07-24T11:32:37;6.65;;;5.13;;
42030;SDS011;27709;52.036;5.906;2023-07-24T11:35:03;6.57;;;5.03;;
42030;SDS011;27709;52.036;5.906;2023-07-24T11:37:29;7.28;;;5.40;;
42030;SDS011;27709;52.036;5.906;2023-07-24T11:39:56;8.50;;;5.80;;
42030;SDS011;27709;52.036;5.906;2023-07-24T11:42:24;8.15;;;7.00;;
42030;SDS011;27709;52.036;5.906;2023-07-24T11:44:51;8.43;;;5.90;;
42030;SDS011;27709;52.036;5.906;2023-07-24T11:47:16;8.90;;;5.65;;
42030;SDS011;27709;52.036;5.906;2023-07-24T11:49:42;6.32;;;4.65;;
42030;SDS011;27709;52.036;5.906;2023-07-24T11:52:14;8.23;;;6.25;;
42030;SDS011;27709;52.036;5.906;2023-07-24T11:54:39;10.77;;;6.65;;
42030;SDS011;27709;52.036;5.906;2023-07-24T11:57:15;8.73;;;5.32;;
42030;SDS011;27709;52.036;5.906;2023-07-24T11:59:41;6.60;;;5.45;;
42030;SDS011;27709;52.036;5.906;2023-07-24T12:02:09;7.68;;;6.20;;
42030;SDS011;27709;52.036;5.906;2023-07-24T12:04:36;7.97;;;6.32;;
42030;SDS011;27709;52.036;5.906;2023-07-24T12:07:07;7.78;;;5.85;;
42030;SDS011;27709;52.036;5.906;2023-07-24T12:09:33;8.23;;;6.70;;
42030;SDS011;27709;52.036;5.906;2023-07-24T12:12:00;6.82;;;5.60;;
42030;SDS011;27709;52.036;5.906;2023-07-24T12:14:28;6.00;;;4.80;;
42030;SDS011;27709;52.036;5.906;2023-07-24T12:17:03;10.80;;;5.70;;
42030;SDS011;27709;52.036;5.906;2023-07-24T12:19:34;10.05;;;7.15;;
42030;SDS011;27709;52.036;5.906;2023-07-24T12:22:01;9.00;;;5.38;;
42030;SDS011;27709;52.036;5.906;2023-07-24T12:24:29;6.75;;;5.22;;
42030;SDS011;27709;52.036;5.906;2023-07-24T12:26:54;6.20;;;4.40;;
42030;SDS011;27709;52.036;5.906;2023-07-24T12:29:20;6.90;;;4.00;;
42030;SDS011;27709;52.036;5.906;2023-07-24T12:31:51;6.43;;;4.65;;
42030;SDS011;27709;52.036;5.906;2023-07-24T12:34:16;6.22;;;4.38;;
42030;SDS011;27709;52.036;5.906;2023-07-24T12:36:42;7.07;;;5.15;;
42030;SDS011;27709;52.036;5.906;2023-07-24T12:39:08;7.60;;;5.13;;
42030;SDS011;27709;52.036;5.906;2023-07-24T12:41:34;7.88;;;4.75;;
42030;SDS011;27709;52.036;5.906;2023-07-24T12:43:59;6.78;;;4.38;;
42030;SDS011;27709;52.036;5.906;2023-07-24T12:46:25;7.18;;;4.38;;
42030;SDS011;27709;52.036;5.906;2023-07-24T12:48:50;6.65;;;4.47;;
42030;SDS011;27709;52.036;5.906;2023-07-24T12:51:16;9.85;;;4.90;;
42030;SDS011;27709;52.036;5.906;2023-07-24T12:53:41;9.85;;;4.63;;
42030;SDS011;27709;52.036;5.906;2023-07-24T12:56:07;7.53;;;4.10;;
42030;SDS011;27709;52.036;5.906;2023-07-24T12:58:32;5.55;;;3.67;;
42030;SDS011;27709;52.036;5.906;2023-07-24T13:00:58;6.63;;;3.58;;
42030;SDS011;27709;52.036;5.906;2023-07-24T13:03:25;5.30;;;3.28;;
42030;SDS011;27709;52.036;5.906;2023-07-24T13:05:50;5.43;;;3.25;;
42030;SDS011;27709;52.036;5.906;2023-07-24T13:08:16;4.95;;;2.97;;
42030;SDS011;27709;52.036;5.906;2023-07-24T13:10:46;4.65;;;2.78;;
42030;SDS011;27709;52.036;5.906;2023-07-24T13:13:12;5.97;;;3.55;;
42030;SDS011;27709;52.036;5.906;2023-07-24T13:15:38;6.63;;;3.05;;
42030;SDS011;27709;52.036;5.906;2023-07-24T13:18:03;4.38;;;2.55;;
42030;SDS011;27709;52.036;5.906;2023-07-24T13:20:29;3.03;;;2.17;;
42030;SDS011;27709;52.036;5.906;2023-07-24T13:22:55;4.78;;;2.40;;
42030;SDS011;27709;52.036;5.906;2023-07-24T13:25:21;3.60;;;2.42;;
42030;SDS011;27709;52.036;5.906;2023-07-24T13:27:46;6.32;;;2.65;;
42030;SDS011;27709;52.036;5.906;2023-07-24T13:30:12;4.47;;;2.80;;
42030;SDS011;27709;52.036;5.906;2023-07-24T13:32:37;3.85;;;2.28;;
42030;SDS011;27709;52.036;5.906;2023-07-24T13:35:03;3.78;;;2.30;;
42030;SDS011;27709;52.036;5.906;2023-07-24T13:37:29;5.15;;;2.80;;
42030;SDS011;27709;52.036;5.906;2023-07-24T13:39:54;4.70;;;2.75;;
42030;SDS011;27709;52.036;5.906;2023-07-24T13:42:23;3.88;;;2.58;;
42030;SDS011;27709;52.036;5.906;2023-07-24T13:44:50;4.03;;;2.40;;
42030;SDS011;27709;52.036;5.906;2023-07-24T13:47:16;5.50;;;2.78;;
42030;SDS011;27709;52.036;5.906;2023-07-24T13:49:42;5.05;;;3.00;;
42030;SDS011;27709;52.036;5.906;2023-07-24T13:52:07;4.70;;;2.70;;
42030;SDS011;27709;52.036;5.906;2023-07-24T13:54:33;4.40;;;2.72;;
42030;SDS011;27709;52.036;5.906;2023-07-24T13:56:58;4.25;;;2.50;;
42030;SDS011;27709;52.036;5.906;2023-07-24T13:59:24;3.67;;;2.50;;
42030;SDS011;27709;52.036;5.906;2023-07-24T14:01:49;4.88;;;2.95;;
42030;SDS011;27709;52.036;5.906;2023-07-24T14:04:15;5.65;;;3.17;;
42030;SDS011;27709;52.036;5.906;2023-07-24T14:06:40;6.35;;;3.20;;
42030;SDS011;27709;52.036;5.906;2023-07-24T14:09:06;4.85;;;3.20;;
42030;SDS011;27709;52.036;5.906;2023-07-24T14:11:32;5.88;;;4.03;;
42030;SDS011;27709;52.036;5.906;2023-07-24T14:13:57;5.28;;;3.67;;
42030;SDS011;27709;52.036;5.906;2023-07-24T14:16:23;5.43;;;3.50;;
42030;SDS011;27709;52.036;5.906;2023-07-24T14:18:48;4.43;;;3.33;;
42030;SDS011;27709;52.036;5.906;2023-07-24T14:21:14;4.88;;;3.60;;
42030;SDS011;27709;52.036;5.906;2023-07-24T14:23:39;3.15;;;2.42;;
42030;SDS011;27709;52.036;5.906;2023-07-24T14:26:05;3.58;;;1.73;;
42030;SDS011;27709;52.036;5.906;2023-07-24T14:28:30;3.08;;;1.92;;
42030;SDS011;27709;52.036;5.906;2023-07-24T14:30:57;1.92;;;1.48;;
42030;SDS011;27709;52.036;5.906;2023-07-24T14:33:22;1.70;;;1.40;;
42030;SDS011;27709;52.036;5.906;2023-07-24T14:35:48;2.35;;;1.70;;
42030;SDS011;27709;52.036;5.906;2023-07-24T14:38:14;3.47;;;1.70;;
42030;SDS011;27709;52.036;5.906;2023-07-24T14:40:39;3.33;;;1.92;;
42030;SDS011;27709;52.036;5.906;2023-07-24T14:43:05;4.13;;;2.13;;
42030;SDS011;27709;52.036;5.906;2023-07-24T14:45:30;4.53;;;2.20;;
42030;SDS011;27709;52.036;5.906;2023-07-24T14:47:56;3.65;;;2.30;;
42030;SDS011;27709;52.036;5.906;2023-07-24T14:50:21;4.03;;;2.70;;
42030;SDS011;27709;52.036;5.906;2023-07-24T14:52:47;3.40;;;2.30;;